Time;durP1;ratioP1;P1;durP2;ratioP2;P2;SDS_P1;SDS_P2;PMS_P1;PMS_P2;Temp;Humidity;BMP_temperature;BMP_pressure;BME280_temperature;BME280_humidity;BME280_pressure;Samples;Min_cycle;Max_cycle;Signal;HPM_P1;HPM_P2
2021/10/14 00:00:00;;;;;;;22.93;18.17;;;;;;;-140.05;100.00;61859.38;5012158;28;20472;-65
2021/10/14 00:02:30;;;;;;;23.87;18.83;;;;;;;-140.05;100.00;61859.38;5013688;28;20542;-62
2021/10/14 00:04:57;;;;;;;22.63;17.87;;;;;;;-140.05;100.00;61859.38;5012712;28;20449;-63
2021/10/14 00:07:24;;;;;;;24.83;18.57;;;;;;;-140.05;100.00;61859.38;5007335;28;20453;-64
2021/10/14 00:09:51;;;;;;;23.67;18.73;;;;;;;-140.05;100.00;61859.38;5010595;28;20499;-63
2021/10/14 00:12:18;;;;;;;23.70;18.70;;;;;;;-140.05;100.00;61859.38;5009928;28;20444;-63
2021/10/14 00:14:45;;;;;;;23.83;20.30;;;;;;;-140.05;100.00;61859.38;5011321;28;20456;-63
2021/10/14 00:17:12;;;;;;;27.03;19.37;;;;;;;-140.05;100.00;61859.38;5012447;28;20974;-64
2021/10/14 00:19:40;;;;;;;25.60;20.63;;;;;;;-140.05;100.00;61859.38;5011540;28;20445;-64
2021/10/14 00:22:07;;;;;;;25.27;19.97;;;;;;;-140.05;100.00;61859.38;5011565;28;20563;-64
2021/10/14 00:24:34;;;;;;;27.77;20.87;;;;;;;-140.05;100.00;61859.38;5008115;28;20447;-65
2021/10/14 00:27:03;;;;;;;30.27;22.60;;;;;;;-140.05;100.00;61859.38;5012446;28;20459;-63
2021/10/14 00:29:30;;;;;;;27.40;22.27;;;;;;;-140.05;100.00;61859.38;5011266;28;20494;-64
2021/10/14 00:31:57;;;;;;;31.43;22.67;;;;;;;-140.05;100.00;61859.38;5007131;28;21021;-64
2021/10/14 00:34:23;;;;;;;25.27;20.63;;;;;;;-140.05;100.00;61859.38;5017284;28;20447;-65
2021/10/14 00:36:50;;;;;;;26.10;20.60;;;;;;;-140.05;100.00;61859.38;5014118;28;20440;-66
2021/10/14 00:39:17;;;;;;;26.67;20.90;;;;;;;-140.05;100.00;61859.38;5024735;28;20444;-65
2021/10/14 00:41:44;;;;;;;26.50;21.07;;;;;;;-140.05;100.00;61859.38;5017020;28;20477;-65
2021/10/14 00:44:11;;;;;;;28.07;21.77;;;;;;;-140.05;100.00;61859.38;5014301;28;20436;-66
2021/10/14 00:46:48;;;;;;;24.80;19.93;;;;;;;-140.05;100.00;61859.38;5010515;28;20448;-65
2021/10/14 00:49:15;;;;;;;25.00;20.80;;;;;;;-140.05;100.00;61859.38;5012611;28;20440;-63
2021/10/14 00:51:43;;;;;;;24.93;21.17;;;;;;;-140.05;100.00;61859.38;5012232;28;20536;-64
2021/10/14 00:54:11;;;;;;;25.90;20.80;;;;;;;-140.05;100.00;61859.38;5012832;28;20448;-64
2021/10/14 00:56:40;;;;;;;28.07;20.80;;;;;;;-140.05;100.00;61859.38;5011396;28;20558;-63
2021/10/14 00:59:10;;;;;;;29.53;20.63;;;;;;;-140.05;100.00;61859.38;4994020;28;20448;-64
2021/10/14 01:01:37;;;;;;;25.93;20.70;;;;;;;-140.05;100.00;61859.38;5011495;28;20901;-64
2021/10/14 01:04:05;;;;;;;25.47;20.60;;;;;;;-140.05;100.00;61859.38;5011837;28;20457;-64
2021/10/14 01:06:33;;;;;;;27.03;21.70;;;;;;;-140.05;100.00;61859.38;5008754;28;20456;-64
2021/10/14 01:09:00;;;;;;;25.17;20.17;;;;;;;-140.05;100.00;61859.38;5012588;28;20795;-65
2021/10/14 01:11:29;;;;;;;26.23;21.00;;;;;;;-140.05;100.00;61859.38;5015948;28;20451;-64
2021/10/14 01:13:56;;;;;;;26.80;21.20;;;;;;;-140.05;100.00;61859.38;5020070;28;20459;-64
2021/10/14 01:16:23;;;;;;;26.03;20.23;;;;;;;-140.05;100.00;61859.38;5009612;28;20448;-65
2021/10/14 01:18:51;;;;;;;25.90;20.20;;;;;;;-140.05;100.00;61859.38;5008250;28;20452;-65
2021/10/14 01:21:19;;;;;;;25.30;21.40;;;;;;;-140.05;100.00;61859.38;5000844;28;20503;-63
2021/10/14 01:23:46;;;;;;;24.60;20.90;;;;;;;-140.05;100.00;61859.38;5012955;28;20448;-66
2021/10/14 01:26:13;;;;;;;25.90;21.53;;;;;;;-140.05;100.00;61859.38;5026318;28;20459;-65
2021/10/14 01:28:40;;;;;;;28.17;21.20;;;;;;;-140.05;100.00;61859.38;5023637;28;20895;-64
2021/10/14 01:31:06;;;;;;;27.60;21.90;;;;;;;-140.05;100.00;61859.38;5020664;28;20505;-64
2021/10/14 01:33:33;;;;;;;24.20;19.53;;;;;;;-140.05;100.00;61859.38;5014009;28;20894;-63
2021/10/14 01:36:01;;;;;;;26.07;20.40;;;;;;;-140.05;100.00;61859.38;5011654;28;20459;-63
2021/10/14 01:38:28;;;;;;;24.90;19.60;;;;;;;-140.05;100.00;61859.38;5011872;28;20955;-64
2021/10/14 01:40:55;;;;;;;21.90;19.10;;;;;;;-140.05;100.00;61859.38;5007574;28;20455;-65
2021/10/14 01:43:22;;;;;;;24.20;20.13;;;;;;;-140.05;100.00;61859.38;5019892;28;20447;-64
2021/10/14 01:45:49;;;;;;;23.73;19.73;;;;;;;-140.05;100.00;61859.38;5008853;28;20535;-64
2021/10/14 01:48:16;;;;;;;23.53;19.40;;;;;;;-140.05;100.00;61859.38;5017968;28;20559;-64
2021/10/14 01:50:43;;;;;;;23.57;19.33;;;;;;;-140.05;100.00;61859.38;5022453;28;20449;-64
2021/10/14 01:53:10;;;;;;;23.87;18.90;;;;;;;-140.05;100.00;61859.38;5010887;28;20807;-64
2021/10/14 01:55:39;;;;;;;24.87;19.53;;;;;;;-140.05;100.00;61859.38;5009612;28;20895;-64
2021/10/14 01:58:07;;;;;;;35.07;19.83;;;;;;;-140.05;100.00;61859.38;5013312;28;20440;-66
2021/10/14 02:00:33;;;;;;;22.33;18.83;;;;;;;-140.05;100.00;61859.38;5006388;28;20465;-66
2021/10/14 02:03:00;;;;;;;22.50;18.90;;;;;;;-140.05;100.00;61859.38;5013834;28;20483;-64
2021/10/14 02:05:27;;;;;;;25.97;19.17;;;;;;;-140.05;100.00;61859.38;4996420;28;20458;-65
2021/10/14 02:07:54;;;;;;;23.97;19.60;;;;;;;-140.05;100.00;61859.38;5012962;28;20459;-63
2021/10/14 02:10:22;;;;;;;25.57;20.97;;;;;;;-140.05;100.00;61859.38;5013961;28;20443;-64
2021/10/14 02:12:49;;;;;;;23.17;19.13;;;;;;;-140.05;100.00;61859.38;5011800;28;20455;-65
2021/10/14 02:15:16;;;;;;;23.97;18.93;;;;;;;-140.05;100.00;61859.38;5011168;28;20445;-63
2021/10/14 02:17:43;;;;;;;22.97;18.93;;;;;;;-140.05;100.00;61859.38;5010757;28;20448;-64
2021/10/14 02:20:10;;;;;;;26.10;19.23;;;;;;;-140.05;100.00;61859.38;5011081;28;20499;-61
2021/10/14 02:22:38;;;;;;;23.13;18.80;;;;;;;-140.05;100.00;61859.38;5010026;28;20469;-63
2021/10/14 02:25:06;;;;;;;22.83;18.80;;;;;;;-140.05;100.00;61859.38;5011040;28;20436;-62
2021/10/14 02:27:33;;;;;;;25.47;19.90;;;;;;;-140.05;100.00;61859.38;5010115;28;20496;-64
2021/10/14 02:30:01;;;;;;;23.63;18.03;;;;;;;-140.05;100.00;61859.38;5010271;28;20500;-62
2021/10/14 02:32:29;;;;;;;25.87;19.37;;;;;;;-140.05;100.00;61859.38;5010103;28;20971;-63
2021/10/14 02:34:57;;;;;;;21.40;18.37;;;;;;;-140.05;100.00;61859.38;5010521;28;20448;-64
2021/10/14 02:37:25;;;;;;;23.73;19.27;;;;;;;-140.05;100.00;61859.38;5010475;28;20448;-63
2021/10/14 02:39:53;;;;;;;24.47;19.13;;;;;;;-140.05;100.00;61859.38;5010690;28;20941;-64
2021/10/14 02:42:20;;;;;;;22.47;19.03;;;;;;;-140.05;100.00;61859.38;5010823;28;20492;-63
2021/10/14 02:44:47;;;;;;;23.80;19.23;;;;;;;-140.05;100.00;61859.38;5010786;28;20811;-64
2021/10/14 02:47:15;;;;;;;26.50;21.57;;;;;;;-140.05;100.00;61859.38;5010123;28;20484;-64
2021/10/14 02:49:42;;;;;;;23.03;18.90;;;;;;;-140.05;100.00;61859.38;5010400;28;20449;-63
2021/10/14 02:52:08;;;;;;;25.63;19.73;;;;;;;-140.05;100.00;61859.38;5009942;28;20479;-64
2021/10/14 02:54:35;;;;;;;29.00;19.47;;;;;;;-140.05;100.00;61859.38;5012485;28;20519;-63
2021/10/14 02:57:02;;;;;;;23.57;20.03;;;;;;;-140.05;100.00;61859.38;5008997;28;20445;-63
2021/10/14 02:59:29;;;;;;;22.07;18.77;;;;;;;-140.05;100.00;61859.38;5004370;28;20448;-64
2021/10/14 03:01:56;;;;;;;24.87;20.40;;;;;;;-140.05;100.00;61859.38;4987437;28;20557;-63
2021/10/14 03:04:23;;;;;;;23.03;19.73;;;;;;;-140.05;100.00;61859.38;5009048;28;20516;-63
2021/10/14 03:06:50;;;;;;;22.47;19.50;;;;;;;-140.05;100.00;61859.38;5004633;28;20445;-64
2021/10/14 03:09:17;;;;;;;26.17;20.00;;;;;;;-140.05;100.00;61859.38;5023911;28;20844;-63
2021/10/14 03:11:44;;;;;;;22.93;18.17;;;;;;;-140.05;100.00;61859.38;5006335;28;20564;-64
2021/10/14 03:14:11;;;;;;;22.90;19.57;;;;;;;-140.05;100.00;61859.38;5001428;28;20437;-65
2021/10/14 03:16:37;;;;;;;23.67;19.33;;;;;;;-140.05;100.00;61859.38;5016467;28;20478;-62
2021/10/14 03:19:04;;;;;;;24.70;20.17;;;;;;;-140.05;100.00;61859.38;5024279;28;20505;-63
2021/10/14 03:21:31;;;;;;;22.97;19.27;;;;;;;-140.05;100.00;61859.38;5009484;28;20943;-63
2021/10/14 03:23:58;;;;;;;24.80;19.67;;;;;;;-140.05;100.00;61859.38;5010347;28;20452;-63
2021/10/14 03:26:26;;;;;;;22.20;19.17;;;;;;;-140.05;100.00;61859.38;5009071;28;20437;-63
2021/10/14 03:28:55;;;;;;;23.37;18.67;;;;;;;-140.05;100.00;61859.38;4999283;28;20478;-63
2021/10/14 03:31:22;;;;;;;25.23;18.77;;;;;;;-140.05;100.00;61859.38;5012419;28;20444;-63
2021/10/14 03:33:50;;;;;;;24.73;19.97;;;;;;;-140.05;100.00;61859.38;5007636;28;21137;-63
2021/10/14 03:36:17;;;;;;;23.60;19.10;;;;;;;-140.05;100.00;61859.38;4997500;28;21450;-65
2021/10/14 03:38:44;;;;;;;24.60;19.07;;;;;;;-140.05;100.00;61859.38;5000662;28;20448;-65
2021/10/14 03:41:11;;;;;;;23.17;19.40;;;;;;;-140.05;100.00;61859.38;5010591;28;20480;-64
2021/10/14 03:43:38;;;;;;;20.47;17.73;;;;;;;-140.05;100.00;61859.38;4999584;28;20477;-65
2021/10/14 03:46:06;;;;;;;24.90;19.13;;;;;;;-140.05;100.00;61859.38;4978796;28;20464;-64
2021/10/14 03:48:33;;;;;;;23.87;20.00;;;;;;;-140.05;100.00;61859.38;5008532;28;21413;-64
2021/10/14 03:51:00;;;;;;;23.90;18.93;;;;;;;-140.05;100.00;61859.38;5009559;28;20459;-64
2021/10/14 03:53:27;;;;;;;22.10;18.83;;;;;;;-140.05;100.00;61859.38;5007884;28;21265;-64
2021/10/14 03:55:54;;;;;;;23.33;18.97;;;;;;;-140.05;100.00;61859.38;5012513;28;20463;-62
2021/10/14 03:58:21;;;;;;;23.50;18.53;;;;;;;-140.05;100.00;61859.38;5007107;28;20448;-62
2021/10/14 04:00:48;;;;;;;23.63;19.20;;;;;;;-140.05;100.00;61859.38;4985673;28;20472;-63
2021/10/14 04:03:15;;;;;;;25.40;19.33;;;;;;;-140.05;100.00;61859.38;5003964;28;20497;-62
2021/10/14 04:05:43;;;;;;;24.40;19.17;;;;;;;-140.05;100.00;61859.38;4996244;28;22731;-63
2021/10/14 04:08:10;;;;;;;25.03;18.93;;;;;;;-140.05;100.00;61859.38;5002380;28;20475;-62
2021/10/14 04:10:37;;;;;;;26.10;20.47;;;;;;;-140.05;100.00;61859.38;4999847;28;20496;-63
2021/10/14 04:13:06;;;;;;;24.27;18.80;;;;;;;-140.05;100.00;61859.38;5010175;28;20503;-63
2021/10/14 04:15:33;;;;;;;24.27;19.50;;;;;;;-140.05;100.00;61859.38;5008389;28;20507;-63
2021/10/14 04:18:00;;;;;;;25.90;19.07;;;;;;;-140.05;100.00;61859.38;5009531;28;20518;-64
2021/10/14 04:20:27;;;;;;;25.97;19.20;;;;;;;-140.05;100.00;61859.38;5007522;28;20455;-65
2021/10/14 04:22:54;;;;;;;23.20;18.60;;;;;;;-140.05;100.00;61859.38;5009484;28;20473;-63
2021/10/14 04:25:21;;;;;;;24.87;20.03;;;;;;;-140.05;100.00;61859.38;5013184;28;20471;-62
2021/10/14 04:27:48;;;;;;;25.23;19.77;;;;;;;-140.05;100.00;61859.38;5020430;28;20900;-62
2021/10/14 04:30:15;;;;;;;24.53;20.60;;;;;;;-140.05;100.00;61859.38;5015839;28;20453;-63
2021/10/14 04:32:43;;;;;;;23.77;19.63;;;;;;;-140.05;100.00;61859.38;5013023;28;20499;-63
2021/10/14 04:35:10;;;;;;;27.57;20.27;;;;;;;-140.05;100.00;61859.38;5007579;28;20440;-63
2021/10/14 04:37:43;;;;;;;25.17;20.17;;;;;;;-140.05;100.00;61859.38;5008765;28;20939;-62
2021/10/14 04:40:11;;;;;;;25.53;19.97;;;;;;;-140.05;100.00;61859.38;5001884;28;20464;-63
2021/10/14 04:42:41;;;;;;;26.83;20.27;;;;;;;-140.05;100.00;61859.38;5005109;28;20547;-62
2021/10/14 04:45:08;;;;;;;27.73;20.93;;;;;;;-140.05;100.00;61859.38;5022300;28;20450;-62
2021/10/14 04:47:36;;;;;;;25.57;20.13;;;;;;;-140.05;100.00;61859.38;5012680;28;20449;-62
2021/10/14 04:50:04;;;;;;;29.37;21.00;;;;;;;-140.05;100.00;61859.38;5012791;28;20447;-61
2021/10/14 04:52:31;;;;;;;28.33;20.40;;;;;;;-140.05;100.00;61859.38;5012236;28;21037;-61
2021/10/14 04:54:58;;;;;;;23.10;19.57;;;;;;;-140.05;100.00;61859.38;5017613;28;20502;-61
2021/10/14 04:57:26;;;;;;;25.17;20.30;;;;;;;-140.05;100.00;61859.38;5003532;28;20448;-61
2021/10/14 04:59:53;;;;;;;42.47;34.17;;;;;;;-140.05;100.00;61859.38;5012469;28;21053;-62
2021/10/14 05:02:20;;;;;;;79.77;54.03;;;;;;;-140.05;100.00;61859.38;4997982;28;20518;-63
2021/10/14 05:04:47;;;;;;;215.17;161.93;;;;;;;-140.05;100.00;61859.38;5012407;28;20433;-62
2021/10/14 05:07:14;;;;;;;32.13;25.70;;;;;;;-140.05;100.00;61859.38;5011912;28;20507;-63
2021/10/14 05:09:41;;;;;;;22.07;18.20;;;;;;;-140.05;100.00;61859.38;5012944;28;20448;-63
2021/10/14 05:12:08;;;;;;;22.23;17.60;;;;;;;-140.05;100.00;61859.38;5012705;28;20978;-65
2021/10/14 05:14:35;;;;;;;20.90;17.97;;;;;;;-140.05;100.00;61859.38;5013169;28;20436;-61
2021/10/14 05:17:02;;;;;;;21.30;17.33;;;;;;;-140.05;100.00;61859.38;5013696;28;20503;-63
2021/10/14 05:19:29;;;;;;;23.70;18.20;;;;;;;-140.05;100.00;61859.38;5013906;28;20440;-63
2021/10/14 05:21:56;;;;;;;24.60;19.00;;;;;;;-140.05;100.00;61859.38;5014429;28;20456;-64
2021/10/14 05:24:23;;;;;;;22.43;18.17;;;;;;;-140.05;100.00;61859.38;5014919;28;20452;-62
2021/10/14 05:26:50;;;;;;;24.07;19.23;;;;;;;-140.05;100.00;61859.38;5031556;28;20444;-67
2021/10/14 05:29:17;;;;;;;98.43;71.70;;;;;;;-140.05;100.00;61859.38;5016850;28;20444;-65
2021/10/14 05:31:44;;;;;;;36.23;28.90;;;;;;;-140.05;100.00;61859.38;5017920;28;20451;-63
2021/10/14 05:34:11;;;;;;;24.80;19.20;;;;;;;-140.05;100.00;61859.38;5018259;28;20474;-61
2021/10/14 05:36:37;;;;;;;22.57;18.80;;;;;;;-140.05;100.00;61859.38;5010265;28;20939;-61
2021/10/14 05:39:04;;;;;;;22.97;17.90;;;;;;;-140.05;100.00;61859.38;5011246;28;20467;-61
2021/10/14 05:41:31;;;;;;;23.43;18.13;;;;;;;-140.05;100.00;61859.38;5024840;28;20452;-61
2021/10/14 05:43:58;;;;;;;19.70;15.63;;;;;;;-140.05;100.00;61859.38;5011643;28;20476;-62
2021/10/14 05:46:25;;;;;;;14.93;12.07;;;;;;;-140.05;100.00;61859.38;5024074;28;20450;-61
2021/10/14 05:48:52;;;;;;;16.20;13.97;;;;;;;-140.05;100.00;61859.38;5011708;28;20445;-63
2021/10/14 05:51:19;;;;;;;19.47;13.90;;;;;;;-140.05;100.00;61859.38;5010788;28;20467;-62
2021/10/14 05:53:46;;;;;;;18.33;12.97;;;;;;;-140.05;100.00;61859.38;5011705;28;20456;-62
2021/10/14 05:56:13;;;;;;;15.87;13.03;;;;;;;-140.05;100.00;61859.38;5010705;28;20503;-63
2021/10/14 05:58:40;;;;;;;18.40;13.03;;;;;;;-140.05;100.00;61859.38;5011465;28;20441;-62
2021/10/14 06:01:07;;;;;;;16.77;13.37;;;;;;;-140.05;100.00;61859.38;5001565;28;20472;-62
2021/10/14 06:03:37;;;;;;;17.17;14.30;;;;;;;-140.05;100.00;61859.38;5005608;28;20481;-61
2021/10/14 06:06:04;;;;;;;13.77;11.60;;;;;;;-140.05;100.00;61859.38;4999651;28;20523;-63
2021/10/14 06:08:31;;;;;;;14.50;11.90;;;;;;;-140.05;100.00;61859.38;5011466;28;20487;-61
2021/10/14 06:10:58;;;;;;;13.10;11.13;;;;;;;-140.05;100.00;61859.38;5011149;28;20580;-61
2021/10/14 06:13:25;;;;;;;15.20;12.20;;;;;;;-140.05;100.00;61859.38;5011100;28;20448;-61
2021/10/14 06:15:52;;;;;;;16.50;11.40;;;;;;;-140.05;100.00;61859.38;5024764;28;20472;-61
2021/10/14 06:18:19;;;;;;;15.03;11.90;;;;;;;-140.05;100.00;61859.38;5011119;28;20490;-62
2021/10/14 06:20:46;;;;;;;16.63;12.73;;;;;;;-140.05;100.00;61859.38;5011295;28;21045;-62
2021/10/14 06:23:14;;;;;;;14.73;12.07;;;;;;;-140.05;100.00;61859.38;5010778;28;20814;-63
2021/10/14 06:25:42;;;;;;;15.47;11.87;;;;;;;-140.05;100.00;61859.38;5011255;28;20965;-62
2021/10/14 06:28:08;;;;;;;15.47;12.17;;;;;;;-140.05;100.00;61859.38;5010409;28;20954;-62
2021/10/14 06:30:35;;;;;;;14.47;11.83;;;;;;;-140.05;100.00;61859.38;5011356;28;20449;-61
2021/10/14 06:33:02;;;;;;;13.73;9.30;;;;;;;-140.05;100.00;61859.38;5010575;28;20456;-63
2021/10/14 06:35:30;;;;;;;9.50;7.50;;;;;;;-140.05;100.00;61859.38;5011201;28;20473;-62
2021/10/14 06:37:58;;;;;;;8.73;6.30;;;;;;;-140.05;100.00;61859.38;5010027;28;20518;-61
2021/10/14 06:40:26;;;;;;;7.47;6.57;;;;;;;-140.05;100.00;61859.38;5011242;28;20455;-61
2021/10/14 06:42:53;;;;;;;8.77;7.07;;;;;;;-140.05;100.00;61859.38;5010294;28;20487;-63
2021/10/14 06:45:20;;;;;;;8.10;6.53;;;;;;;-140.05;100.00;61859.38;5017826;28;20980;-62
2021/10/14 06:47:47;;;;;;;8.17;6.93;;;;;;;-140.05;100.00;61859.38;5017175;28;20449;-61
2021/10/14 06:50:14;;;;;;;10.37;7.87;;;;;;;-140.05;100.00;61859.38;5016112;28;20590;-62
2021/10/14 06:52:41;;;;;;;11.57;9.50;;;;;;;-140.05;100.00;61859.38;5019260;28;20444;-62
2021/10/14 06:55:08;;;;;;;12.97;9.33;;;;;;;-140.05;100.00;61859.38;5010494;28;20441;-61
2021/10/14 06:57:37;;;;;;;11.70;9.87;;;;;;;-140.05;100.00;61859.38;5010418;28;20445;-62
2021/10/14 07:00:06;;;;;;;10.63;8.07;;;;;;;-140.05;100.00;61859.38;5010584;28;20567;-61
2021/10/14 07:02:33;;;;;;;9.63;7.60;;;;;;;-140.05;100.00;61859.38;5010128;28;20441;-61
2021/10/14 07:05:02;;;;;;;8.33;6.83;;;;;;;-140.05;100.00;61859.38;4997595;28;20442;-62
2021/10/14 07:07:29;;;;;;;9.03;7.30;;;;;;;-140.05;100.00;61859.38;5023319;28;20497;-61
2021/10/14 07:09:56;;;;;;;10.67;7.87;;;;;;;-140.05;100.00;61859.38;5010492;28;20463;-61
2021/10/14 07:12:28;;;;;;;11.63;8.77;;;;;;;-140.05;100.00;61859.38;5009702;28;20946;-62
2021/10/14 07:14:55;;;;;;;13.93;9.43;;;;;;;-140.05;100.00;61859.38;5010863;28;20441;-63
2021/10/14 07:17:22;;;;;;;12.07;8.93;;;;;;;-140.05;100.00;61859.38;5010188;28;20455;-62
2021/10/14 07:19:49;;;;;;;14.33;8.77;;;;;;;-140.05;100.00;61859.38;5010360;28;20822;-62
2021/10/14 07:22:16;;;;;;;11.90;9.43;;;;;;;-140.05;100.00;61859.38;5010324;28;20973;-62
2021/10/14 07:24:43;;;;;;;10.63;8.30;;;;;;;-140.05;100.00;61859.38;5011216;28;20480;-62
2021/10/14 07:27:10;;;;;;;10.57;8.20;;;;;;;-140.05;100.00;61859.38;5010206;28;20444;-62
2021/10/14 07:29:37;;;;;;;11.47;7.73;;;;;;;-140.05;100.00;61859.38;5008150;28;20909;-62
2021/10/14 07:32:06;;;;;;;9.93;8.00;;;;;;;-140.05;100.00;61859.38;5009633;28;21029;-63
2021/10/14 07:34:34;;;;;;;8.33;6.23;;;;;;;-140.05;100.00;61859.38;5009871;28;20443;-61
2021/10/14 07:37:03;;;;;;;11.10;8.03;;;;;;;-140.05;100.00;61859.38;5009501;28;20463;-63
2021/10/14 07:39:30;;;;;;;10.37;6.90;;;;;;;-140.05;100.00;61859.38;5009882;28;20444;-62
2021/10/14 07:41:57;;;;;;;11.95;7.93;;;;;;;-140.05;100.00;61859.38;5011745;28;20433;-61
2021/10/14 07:44:24;;;;;;;9.17;6.87;;;;;;;-140.05;100.00;61859.38;5010753;28;20229;-61
2021/10/14 07:46:51;;;;;;;10.67;8.10;;;;;;;-140.05;100.00;61859.38;5009242;28;20575;-63
2021/10/14 07:49:19;;;;;;;11.40;8.60;;;;;;;-140.05;100.00;61859.38;5021420;28;20448;-61
2021/10/14 07:51:46;;;;;;;10.73;8.87;;;;;;;-140.05;100.00;61859.38;5025508;28;20433;-62
2021/10/14 07:54:13;;;;;;;11.17;9.17;;;;;;;-140.05;100.00;61859.38;5009803;28;20539;-62
2021/10/14 07:56:40;;;;;;;9.17;7.90;;;;;;;-140.05;100.00;61859.38;5008576;28;20511;-62
2021/10/14 07:59:08;;;;;;;9.57;8.17;;;;;;;-140.05;100.00;61859.38;5009764;28;20455;-62
2021/10/14 08:01:36;;;;;;;10.77;7.80;;;;;;;-140.05;100.00;61859.38;5009063;28;20978;-62
2021/10/14 08:04:04;;;;;;;4.50;3.53;;;;;;;-140.05;100.00;61859.38;4990384;28;20517;-62
2021/10/14 08:06:31;;;;;;;7.63;4.20;;;;;;;-140.05;100.00;61859.38;5007473;28;20515;-62
2021/10/14 08:08:57;;;;;;;5.27;4.03;;;;;;;-140.05;100.00;61859.38;5013772;28;20472;-62
2021/10/14 08:11:24;;;;;;;5.23;3.70;;;;;;;-140.05;100.00;61859.38;5009076;28;20461;-61
2021/10/14 08:13:52;;;;;;;5.07;3.47;;;;;;;-140.05;100.00;61859.38;5009983;28;20448;-62
2021/10/14 08:16:19;;;;;;;6.20;3.43;;;;;;;-140.05;100.00;61859.38;5007540;28;20531;-63
2021/10/14 08:18:48;;;;;;;5.33;3.60;;;;;;;-140.05;100.00;61859.38;5009438;28;20433;-61
2021/10/14 08:21:15;;;;;;;4.30;3.07;;;;;;;-140.05;100.00;61859.38;5009413;28;20436;-63
2021/10/14 08:23:42;;;;;;;2.57;1.70;;;;;;;-140.05;100.00;61859.38;5009267;28;20492;-62
2021/10/14 08:26:10;;;;;;;3.97;2.57;;;;;;;-140.05;100.00;61859.38;5008765;28;20455;-61
2021/10/14 08:28:37;;;;;;;4.27;2.23;;;;;;;-140.05;100.00;61859.38;5009826;28;20443;-61
2021/10/14 08:31:04;;;;;;;2.23;1.60;;;;;;;-140.05;100.00;61859.38;5009277;28;20445;-61
2021/10/14 08:33:32;;;;;;;4.25;2.20;;;;;;;-140.05;100.00;61859.38;5010049;28;20515;-62
2021/10/14 08:36:04;;;;;;;2.77;1.80;;;;;;;-140.05;100.00;61859.38;5009098;28;20209;-61
2021/10/14 08:38:31;;;;;;;3.27;1.80;;;;;;;-140.05;100.00;61859.38;5009394;28;20745;-61
2021/10/14 08:40:58;;;;;;;5.90;3.00;;;;;;;-140.05;100.00;61859.38;5009085;28;20453;-60
2021/10/14 08:43:31;;;;;;;2.40;2.20;;;;;;;-140.05;100.00;61859.38;5009404;28;20295;-60
2021/10/14 08:45:58;;;;;;;3.40;2.45;;;;;;;-140.05;100.00;61859.38;5011308;28;20457;-61
2021/10/14 08:48:25;;;;;;;4.40;2.40;;;;;;;-140.05;100.00;61859.38;5010341;28;20196;-61
2021/10/14 08:50:52;;;;;;;3.47;2.40;;;;;;;-140.05;100.00;61859.38;5009647;28;20564;-62
2021/10/14 08:53:19;;;;;;;2.95;2.45;;;;;;;-140.05;100.00;61859.38;5009907;28;20456;-60
2021/10/14 08:55:46;;;;;;;2.85;2.47;;;;;;;-140.05;100.00;61859.38;5011073;28;20205;-60
2021/10/14 08:58:13;;;;;;;3.30;2.60;;;;;;;-140.05;100.00;61859.38;5009836;28;20921;-62
2021/10/14 09:01:02;;;;;;;3.07;2.60;;;;;;;-140.05;100.00;61859.38;5003316;28;20238;-64
2021/10/14 09:03:30;;;;;;;2.40;2.20;;;;;;;-140.05;100.00;61859.38;5003029;28;20496;-60
2021/10/14 09:05:58;;;;;;;3.40;2.25;;;;;;;-140.05;100.00;61859.38;4997428;28;20209;-61
2021/10/14 09:08:46;;;;;;;3.10;2.17;;;;;;;-140.05;100.00;61859.38;5020507;28;21015;-60
2021/10/14 09:11:18;;;;;;;3.83;2.67;;;;;;;-140.05;100.00;61859.38;5011968;28;20233;-61
2021/10/14 09:13:47;;;;;;;3.10;2.20;;;;;;;-140.05;100.00;61859.38;5025287;28;20197;-61
2021/10/14 09:16:52;;;;;;;2.78;2.30;;;;;;;-140.05;100.00;61859.38;5012701;28;20257;-60
2021/10/14 09:19:21;;;;;;;2.90;2.30;;;;;;;-140.05;100.00;61859.38;4995761;28;20673;-61
2021/10/14 09:21:52;;;;;;;3.90;2.33;;;;;;;-140.05;100.00;61859.38;5000758;28;20203;-61
2021/10/14 09:24:28;;;;;;;2.80;1.98;;;;;;;-140.05;100.00;61859.38;5001358;28;20241;-61
2021/10/14 09:26:56;;;;;;;2.22;1.60;;;;;;;-140.05;100.00;61859.38;5012229;28;20229;-60
2021/10/14 09:29:27;;;;;;;3.38;1.83;;;;;;;-140.05;100.00;61859.38;5012081;28;20228;-60
2021/10/14 09:31:59;;;;;;;2.90;2.10;;;;;;;-140.05;100.00;61859.38;5012045;28;20226;-60
2021/10/14 09:34:29;;;;;;;2.70;2.03;;;;;;;-140.05;100.00;61859.38;5025570;28;20929;-60
2021/10/14 09:36:57;;;;;;;4.27;2.40;;;;;;;-140.05;100.00;61859.38;5011238;28;20444;-61
2021/10/14 09:39:25;;;;;;;3.37;2.70;;;;;;;-140.05;100.00;61859.38;5011983;28;20444;-62
2021/10/14 09:41:54;;;;;;;3.30;2.50;;;;;;;-140.05;100.00;61859.38;4992409;28;20893;-61
2021/10/14 09:44:49;;;;;;;2.70;1.70;;;;;;;-140.05;100.00;61859.38;4993641;28;20238;-60
2021/10/14 09:47:17;;;;;;;2.03;1.70;;;;;;;-140.05;100.00;61859.38;5003021;28;20445;-63
2021/10/14 09:49:44;;;;;;;2.87;1.70;;;;;;;-140.05;100.00;61859.38;5005803;28;20468;-62
2021/10/14 09:52:11;;;;;;;3.90;1.60;;;;;;;-140.05;100.00;61859.38;4992091;28;20449;-61
2021/10/14 09:54:37;;;;;;;3.63;1.63;;;;;;;-140.05;100.00;61859.38;5005364;28;20230;-61
2021/10/14 09:57:04;;;;;;;2.23;1.57;;;;;;;-140.05;100.00;61859.38;5011188;28;20453;-61
2021/10/14 09:59:31;;;;;;;3.93;2.60;;;;;;;-140.05;100.00;61859.38;5000283;28;20448;-60
2021/10/14 10:02:02;;;;;;;2.17;1.60;;;;;;;-140.05;100.00;61859.38;4991671;28;20472;-63
2021/10/14 10:04:30;;;;;;;2.90;1.47;;;;;;;-140.05;100.00;61859.38;4992283;28;20489;-64
2021/10/14 10:07:02;;;;;;;1.20;1.10;;;;;;;-140.05;100.00;61859.38;5019304;28;20479;-62
2021/10/14 10:09:39;;;;;;;1.30;1.10;;;;;;;-140.05;100.00;61859.38;5025045;28;20445;-61
2021/10/14 10:12:07;;;;;;;1.20;1.03;;;;;;;-140.05;100.00;61859.38;5011822;28;20456;-65
2021/10/14 10:14:35;;;;;;;1.50;1.30;;;;;;;-140.05;100.00;61859.38;5011570;28;20522;-62
2021/10/14 10:17:07;;;;;;;2.50;1.07;;;;;;;-140.05;100.00;61859.38;5011054;28;20570;-62
2021/10/14 10:19:39;;;;;;;2.03;1.40;;;;;;;-140.05;100.00;61859.38;5015159;28;20514;-61
2021/10/14 10:22:07;;;;;;;2.87;1.33;;;;;;;-140.05;100.00;61859.38;5019396;28;20954;-61
2021/10/14 10:24:34;;;;;;;1.43;1.30;;;;;;;-140.05;100.00;61859.38;5011368;28;20473;-62
2021/10/14 10:27:07;;;;;;;1.53;1.37;;;;;;;-140.05;100.00;61859.38;5010587;28;21283;-61
2021/10/14 10:29:37;;;;;;;2.67;1.70;;;;;;;-140.05;100.00;61859.38;5010624;28;20967;-61
2021/10/14 10:32:04;;;;;;;2.55;1.80;;;;;;;-140.05;100.00;61859.38;5010906;28;21071;-60
2021/10/14 10:37:28;;;;;;;2.50;2.13;;;;;;;-140.05;100.00;61859.38;5010689;28;20452;-62
2021/10/14 10:40:09;;;;;;;2.87;2.43;;;;;;;-140.05;100.00;61859.38;5010357;28;20479;-60
2021/10/14 10:42:40;;;;;;;6.67;4.97;;;;;;;-140.05;100.00;61859.38;5010825;28;20449;-61
2021/10/14 10:45:12;;;;;;;5.03;4.47;;;;;;;-140.05;100.00;61859.38;5010599;28;20510;-61
2021/10/14 10:47:44;;;;;;;4.37;2.33;;;;;;;-140.05;100.00;61859.38;5010456;28;20432;-61
2021/10/14 10:50:12;;;;;;;14.80;3.40;;;;;;;-140.05;100.00;61859.38;5014685;28;20821;-62
2021/10/14 10:52:43;;;;;;;12.02;3.60;;;;;;;-140.05;100.00;61859.38;5019090;28;20950;-62
2021/10/14 10:55:15;;;;;;;6.57;2.60;;;;;;;-140.05;100.00;61859.38;5010519;28;20754;-62
2021/10/14 10:57:53;;;;;;;7.63;3.27;;;;;;;-140.05;100.00;61859.38;5010393;28;20198;-61
2021/10/14 11:00:22;;;;;;;3.70;2.27;;;;;;;-140.05;100.00;61859.38;5007095;28;20556;-62
2021/10/14 11:03:29;;;;;;;3.23;2.30;;;;;;;-140.05;100.00;61859.38;4999827;28;20460;-61
2021/10/14 11:06:01;;;;;;;4.07;2.57;;;;;;;-140.05;100.00;61859.38;4994420;28;20455;-61